createdAt,value
2019-02-22T00:02:27.251Z,63.15
2019-02-22T00:04:57.694Z,63.04
2019-02-22T00:07:28.134Z,63.01
2019-02-22T00:09:58.544Z,63.24
2019-02-22T00:12:29.265Z,63.10
2019-02-22T00:15:00.972Z,63.52
2019-02-22T00:17:31.380Z,63.86
2019-02-22T00:20:01.782Z,63.49
2019-02-22T00:22:32.184Z,63.82
2019-02-22T00:25:02.598Z,64.23
2019-02-22T00:27:33.046Z,64.23
2019-02-22T00:30:03.452Z,64.05
2019-02-22T00:32:33.832Z,63.63
2019-02-22T00:35:05.475Z,63.63
2019-02-22T00:37:36.001Z,63.84
2019-02-22T00:40:06.387Z,63.84
2019-02-22T00:42:36.773Z,64.28
2019-02-22T00:45:07.132Z,63.13
2019-02-22T00:47:37.504Z,62.87
2019-02-22T00:50:09.011Z,62.86
2019-02-22T00:52:39.497Z,63.33
2019-02-22T00:55:09.875Z,63.42
2019-02-22T00:57:41.867Z,63.46
2019-02-22T01:00:12.258Z,63.40
2019-02-22T01:02:42.683Z,63.66
2019-02-22T01:05:13.061Z,63.17
2019-02-22T01:07:43.482Z,63.38
2019-02-22T01:10:13.864Z,63.16
2019-02-22T01:12:44.293Z,63.33
2019-02-22T01:15:14.689Z,63.82
2019-02-22T01:17:45.131Z,63.93
2019-02-22T01:20:15.544Z,64.08
2019-02-22T01:22:45.936Z,64.05
2019-02-22T01:25:16.359Z,63.92
2019-02-22T01:27:46.754Z,64.37
2019-02-22T01:30:17.108Z,64.82
2019-02-22T01:32:47.531Z,64.79
2019-02-22T01:35:17.949Z,64.78
2019-02-22T01:37:48.387Z,64.94
2019-02-22T01:40:18.807Z,64.53
2019-02-22T01:42:49.083Z,64.88
2019-02-22T01:45:19.477Z,64.78
2019-02-22T01:47:49.927Z,64.31
2019-02-22T01:50:22.349Z,64.29
2019-02-22T01:52:52.718Z,63.69
2019-02-22T01:55:23.093Z,63.78
2019-02-22T01:57:53.505Z,63.39
2019-02-22T02:00:23.911Z,63.23
2019-02-22T02:02:54.311Z,63.48
2019-02-22T02:05:24.744Z,63.00
2019-02-22T02:07:55.150Z,61.20
2019-02-22T02:10:25.575Z,60.46
2019-02-22T02:12:55.946Z,60.65
2019-02-22T02:15:26.322Z,60.86
2019-02-22T02:17:56.752Z,59.73
2019-02-22T02:20:27.201Z,59.90
2019-02-22T02:22:57.620Z,58.80
2019-02-22T02:25:28.069Z,58.54
2019-02-22T02:27:58.458Z,57.66
2019-02-22T02:30:28.835Z,58.50
2019-02-22T02:32:59.199Z,58.14
2019-02-22T02:35:29.538Z,58.62
2019-02-22T02:37:59.930Z,57.24
2019-02-22T02:40:30.315Z,57.00
2019-02-22T02:43:00.710Z,56.53
2019-02-22T02:45:31.094Z,56.53
2019-02-22T02:48:01.508Z,56.36
2019-02-22T02:50:31.890Z,56.84
2019-02-22T02:53:02.297Z,56.18
2019-02-22T02:55:34.173Z,56.38
2019-02-22T02:58:04.582Z,56.12
2019-02-22T03:00:35.017Z,56.48
2019-02-22T03:03:05.393Z,56.16
2019-02-22T03:05:40.310Z,54.61
2019-02-22T03:08:10.674Z,55.20
2019-02-22T03:10:41.103Z,54.74
2019-02-22T03:13:11.524Z,54.44
2019-02-22T03:15:41.910Z,54.20
2019-02-22T03:18:12.351Z,54.67
2019-02-22T03:20:42.749Z,54.94
2019-02-22T03:23:13.244Z,55.42
2019-02-22T03:25:46.095Z,54.58
2019-02-22T03:28:16.509Z,54.56
2019-02-22T03:30:46.913Z,54.20
2019-02-22T03:33:17.561Z,54.68
2019-02-22T03:35:47.970Z,54.45
2019-02-22T03:38:18.400Z,54.10
2019-02-22T03:40:48.749Z,53.95
2019-02-22T03:43:19.181Z,54.31
2019-02-22T03:45:49.579Z,53.97
2019-02-22T03:48:20.826Z,54.06
2019-02-22T03:50:51.213Z,54.33
2019-02-22T03:53:23.176Z,54.67
2019-02-22T03:55:53.627Z,54.04
2019-02-22T03:58:23.995Z,54.37
2019-02-22T04:00:54.409Z,54.34
2019-02-22T04:03:24.857Z,53.68
2019-02-22T04:05:55.260Z,53.60
2019-02-22T04:08:25.645Z,54.12
2019-02-22T04:10:56.035Z,54.17
2019-02-22T04:13:26.450Z,54.13
2019-02-22T04:15:56.885Z,54.03
2019-02-22T04:18:27.299Z,54.93
2019-02-22T04:20:57.781Z,54.70
2019-02-22T04:23:28.232Z,54.87
2019-02-22T04:25:58.600Z,54.55
2019-02-22T04:28:29.023Z,55.11
2019-02-22T04:31:01.042Z,55.00
2019-02-22T04:33:31.447Z,55.24
2019-02-22T04:36:01.863Z,54.62
2019-02-22T04:38:32.319Z,55.08
2019-02-22T04:41:02.719Z,55.03
2019-02-22T04:43:33.154Z,55.53
2019-02-22T04:46:03.566Z,55.19
2019-02-22T04:48:33.974Z,55.30
2019-02-22T04:51:04.415Z,56.00
2019-02-22T04:53:34.852Z,55.54
2019-02-22T04:56:05.298Z,55.29
2019-02-22T04:58:38.979Z,55.41
2019-02-22T05:01:09.381Z,54.92
2019-02-22T05:03:42.752Z,55.07
2019-02-22T05:06:15.992Z,55.17
2019-02-22T05:08:47.716Z,55.13
2019-02-22T05:11:19.715Z,55.72
2019-02-22T05:13:50.137Z,54.64
2019-02-22T05:16:22.188Z,55.28
2019-02-22T05:18:52.572Z,55.37
2019-02-22T05:21:23.029Z,55.37
2019-02-22T05:23:55.100Z,55.58
2019-02-22T05:26:29.282Z,54.76
2019-02-22T05:28:59.661Z,54.17
2019-02-22T05:31:31.207Z,54.00
2019-02-22T05:34:01.785Z,53.62
2019-02-22T05:36:32.223Z,54.09
2019-02-22T05:39:05.129Z,54.34
2019-02-22T05:41:39.491Z,54.04
2019-02-22T05:44:12.933Z,53.74
2019-02-22T05:46:44.796Z,54.31
2019-02-22T05:49:16.855Z,53.81
2019-02-22T05:51:49.570Z,53.70
2019-02-22T05:54:29.613Z,53.67
2019-02-22T05:57:01.927Z,53.85
2019-02-22T05:59:32.494Z,53.35
2019-02-22T06:02:02.895Z,53.26
2019-02-22T06:04:35.656Z,52.85
2019-02-22T06:07:08.758Z,52.60
2019-02-22T06:09:41.505Z,52.00
2019-02-22T06:12:14.232Z,51.25
2019-02-22T06:14:44.718Z,52.15
2019-02-22T06:17:16.283Z,51.18
2019-02-22T06:19:49.723Z,51.21
2019-02-22T06:22:28.995Z,51.81
2019-02-22T06:24:58.746Z,50.24
2019-02-22T06:27:33.742Z,50.93
2019-02-22T06:30:07.971Z,50.93
2019-02-22T06:32:42.440Z,50.28
2019-02-22T06:35:14.089Z,49.27
2019-02-22T06:37:44.491Z,49.27
2019-02-22T06:40:14.884Z,49.22
2019-02-22T06:42:46.267Z,48.64
2019-02-22T06:45:18.352Z,49.61
2019-02-22T06:47:54.696Z,49.31
2019-02-22T06:50:33.660Z,49.39
2019-02-22T06:53:00.051Z,48.83
2019-02-22T06:55:30.469Z,48.87
2019-02-22T06:58:02.491Z,48.69
2019-02-22T07:00:32.958Z,48.36
2019-02-22T07:03:05.632Z,48.28
2019-02-22T07:05:36.038Z,48.20
2019-02-22T07:08:09.665Z,48.45
2019-02-22T07:11:00.012Z,49.03
2019-02-22T07:13:33.298Z,48.23
2019-02-22T07:16:05.100Z,51.34
2019-02-22T07:18:35.599Z,51.34
2019-02-22T07:21:07.579Z,50.52
2019-02-22T07:23:38.101Z,49.71
2019-02-22T07:26:13.828Z,49.71
2019-02-22T07:28:44.282Z,49.53
2019-02-22T07:31:17.088Z,50.23
2019-02-22T10:18:58.296Z,45.62
2019-02-22T10:21:28.883Z,44.94
2019-02-22T10:23:59.365Z,45.02
2019-02-22T10:26:29.944Z,45.01
2019-02-22T10:29:00.694Z,45.35
2019-02-22T10:31:31.308Z,44.94
2019-02-22T10:34:01.807Z,44.78
2019-02-22T10:36:44.744Z,44.90
2019-02-22T10:39:11.262Z,43.99
2019-02-22T10:44:38.476Z,45.02
2019-02-22T10:47:09.112Z,45.18
2019-02-22T10:49:39.705Z,45.12
2019-02-22T10:52:10.214Z,45.57
2019-02-22T10:54:40.831Z,45.95
2019-02-22T10:57:11.351Z,45.95
2019-02-22T10:59:41.794Z,45.26
2019-02-22T11:02:12.277Z,45.52
2019-02-22T11:07:49.952Z,45.63
2019-02-22T11:10:20.423Z,45.63
2019-02-22T11:15:49.115Z,45.76
2019-02-22T11:18:20.598Z,45.80
2019-02-22T11:20:52.708Z,46.12
2019-02-22T11:23:23.461Z,48.29
2019-02-22T11:26:21.805Z,45.85
2019-02-22T11:28:55.129Z,45.85
2019-02-22T11:31:44.382Z,46.11
2019-02-22T11:34:14.843Z,46.14
2019-02-22T11:36:45.310Z,46.70
2019-02-22T11:39:18.445Z,46.70
2019-02-22T11:44:41.686Z,46.81
2019-02-22T11:47:12.233Z,47.01
2019-02-22T11:49:42.770Z,47.01
2019-02-22T11:55:06.758Z,47.07
2019-02-22T11:57:39.036Z,47.60
2019-02-22T12:00:20.285Z,48.10
2019-02-22T12:02:52.517Z,48.25
2019-02-22T12:05:24.198Z,48.85
2019-02-22T12:07:57.520Z,48.67
2019-02-22T12:10:33.878Z,48.91
2019-02-22T12:13:04.420Z,48.85
2019-02-22T12:15:34.812Z,48.64
2019-02-22T12:18:05.234Z,48.80
2019-02-22T12:20:43.898Z,49.29
2019-02-22T12:23:14.483Z,49.44
2019-02-22T12:25:45.027Z,49.44
2019-02-22T12:28:17.258Z,50.04
2019-02-22T12:30:47.737Z,50.04
2019-02-22T12:33:18.814Z,49.71
2019-02-22T12:35:49.226Z,49.76
2019-02-22T12:38:19.663Z,49.76
2019-02-22T12:40:50.226Z,50.58
2019-02-22T12:43:20.653Z,50.58
2019-02-22T12:45:51.314Z,50.51
2019-02-22T12:48:21.831Z,50.77
2019-02-22T12:50:52.250Z,51.23
2019-02-22T12:53:22.722Z,51.38
2019-02-22T12:55:53.247Z,51.74
2019-02-22T12:58:25.742Z,52.12
2019-02-22T13:00:56.164Z,52.00
2019-02-22T13:03:29.599Z,51.50
2019-02-22T13:06:00.403Z,52.04
2019-02-22T13:11:20.456Z,52.84
2019-02-22T13:13:50.872Z,53.04
2019-02-22T13:16:21.258Z,53.90
2019-02-22T13:18:54.592Z,54.07
2019-02-22T13:21:28.367Z,54.58
2019-02-22T13:24:00.455Z,55.18
2019-02-22T13:26:33.403Z,55.64
2019-02-22T13:29:13.019Z,56.09
2019-02-22T13:31:43.542Z,56.37
2019-02-22T13:34:14.078Z,57.50
2019-02-22T13:36:44.508Z,58.14
2019-02-22T13:39:15.135Z,58.59
2019-02-22T13:41:46.276Z,58.86
2019-02-22T13:47:06.287Z,58.60
2019-02-22T13:49:38.153Z,60.09
2019-02-22T13:52:14.673Z,59.51
2019-02-22T13:54:48.413Z,61.85
2019-02-22T13:57:20.165Z,64.57
2019-02-22T13:59:52.053Z,66.35
2019-02-22T14:02:22.998Z,67.01
2019-02-22T14:07:54.597Z,68.56
2019-02-22T14:13:16.618Z,70.17
2019-02-22T14:15:47.039Z,70.23
2019-02-22T14:18:17.460Z,70.01
2019-02-22T14:20:49.118Z,69.37
2019-02-22T14:23:21.115Z,69.44
2019-02-22T14:25:51.520Z,68.25
2019-02-22T14:28:24.431Z,69.20
2019-02-22T14:30:55.010Z,68.96
2019-02-22T14:33:25.437Z,68.76
2019-02-22T14:35:55.961Z,68.52
2019-02-22T14:38:26.527Z,67.69
2019-02-22T14:40:59.707Z,66.80
2019-02-22T14:43:31.591Z,66.18
2019-02-22T14:46:02.092Z,64.75
2019-02-22T14:48:33.955Z,64.06
2019-02-22T14:51:04.401Z,63.37
2019-02-22T14:53:34.880Z,62.28
2019-02-22T14:56:05.346Z,61.48
2019-02-22T14:58:35.905Z,60.40
2019-02-22T15:01:06.366Z,59.16
2019-02-22T15:03:36.842Z,57.90
2019-02-22T15:06:07.272Z,57.05
2019-02-22T15:08:37.717Z,56.74
2019-02-22T15:11:08.170Z,55.89
2019-02-22T15:13:38.607Z,55.96
2019-02-22T15:16:13.755Z,55.05
2019-02-22T15:18:44.146Z,53.99
2019-02-22T15:21:14.626Z,53.87
2019-02-22T15:23:53.185Z,54.05
2019-02-22T15:26:23.911Z,53.60
2019-02-22T15:28:54.333Z,53.25
2019-02-22T15:31:33.425Z,53.16
2019-02-22T15:33:57.413Z,53.06
2019-02-22T15:36:27.963Z,52.60
2019-02-22T15:38:58.370Z,53.12
2019-02-22T15:41:28.840Z,53.35
2019-02-22T15:43:59.396Z,53.06
2019-02-22T15:46:29.936Z,52.85
2019-02-22T15:49:00.499Z,53.13
2019-02-22T15:51:30.940Z,53.63
2019-02-22T15:54:01.375Z,54.19
2019-02-22T15:56:31.809Z,55.34
2019-02-22T15:59:02.267Z,56.29
2019-02-22T16:01:34.349Z,56.63
2019-02-22T16:04:11.712Z,56.90
2019-02-22T16:06:42.252Z,56.27
2019-02-22T16:09:15.688Z,55.77
2019-02-22T16:11:46.339Z,55.97
2019-02-22T16:14:18.498Z,56.46
2019-02-22T16:16:52.135Z,57.19
2019-02-22T16:19:26.133Z,57.09
2019-02-22T16:22:00.966Z,57.18
2019-02-22T16:24:33.330Z,57.40
2019-02-22T16:27:05.364Z,57.78
2019-02-22T16:29:36.354Z,57.55
2019-02-22T16:32:07.111Z,57.70
2019-02-22T16:34:43.575Z,57.56
2019-02-22T16:37:11.304Z,57.48
2019-02-22T16:39:41.743Z,56.57
2019-02-22T16:42:16.476Z,56.52
2019-02-22T16:44:47.119Z,56.33
2019-02-22T16:47:17.764Z,56.37
2019-02-22T16:49:48.431Z,55.94
2019-02-22T16:52:18.877Z,55.91
2019-02-22T16:54:49.540Z,56.41
2019-02-22T16:57:25.628Z,56.42
2019-02-22T16:59:56.228Z,56.81
2019-02-22T17:02:31.193Z,56.18
2019-02-22T17:05:02.763Z,55.96
2019-02-22T17:07:34.282Z,56.13
2019-02-22T17:10:08.878Z,55.91
2019-02-22T17:12:40.939Z,56.41
2019-02-22T17:15:12.649Z,56.81
2019-02-22T17:17:43.110Z,57.09
2019-02-22T17:20:14.957Z,58.75
2019-02-22T17:22:46.369Z,60.03
2019-02-22T17:25:20.621Z,59.86
2019-02-22T17:27:51.001Z,59.97
2019-02-22T17:30:22.633Z,58.39
2019-02-22T17:32:53.039Z,56.70
2019-02-22T17:35:24.437Z,56.91
2019-02-22T17:37:56.582Z,56.94
2019-02-22T17:40:30.187Z,57.07
2019-02-22T17:43:03.573Z,56.65
2019-02-22T17:45:35.615Z,56.58
2019-02-22T17:48:06.233Z,56.00
2019-02-22T17:50:36.720Z,55.65
2019-02-22T17:53:07.133Z,55.51
2019-02-22T17:55:38.787Z,54.83
2019-02-22T18:01:11.694Z,54.09
2019-02-22T18:03:42.275Z,54.15
2019-02-22T18:06:12.956Z,53.72
2019-02-22T18:08:44.702Z,53.75
2019-02-22T18:11:17.498Z,53.83
2019-02-22T18:13:49.553Z,53.92
2019-02-22T18:16:33.904Z,53.88
2019-02-22T18:19:04.782Z,54.31
2019-02-22T18:21:46.605Z,54.69
2019-02-22T18:24:21.948Z,54.55
2019-02-22T18:27:10.283Z,54.83
2019-02-22T18:29:45.812Z,54.79
2019-02-22T18:32:16.398Z,55.03
2019-02-22T18:34:47.351Z,55.00
2019-02-22T18:37:19.003Z,55.23
2019-02-22T18:39:49.895Z,55.01
2019-02-22T18:42:22.581Z,55.19
2019-02-22T18:44:56.621Z,55.39
2019-02-22T18:47:41.635Z,55.96
2019-02-22T18:50:40.570Z,56.47
2019-02-22T18:53:34.062Z,57.30
2019-02-22T18:56:07.248Z,57.40
2019-02-22T19:01:27.935Z,57.67
2019-02-22T19:04:00.153Z,57.86
2019-02-22T19:06:34.414Z,57.28
2019-02-22T19:09:32.796Z,57.24
2019-02-22T19:11:47.416Z,56.81
2019-02-22T19:14:17.960Z,55.60
2019-02-22T19:16:48.609Z,53.17
2019-02-22T19:19:19.638Z,51.64
2019-02-22T19:21:50.509Z,51.05
2019-02-22T19:24:23.542Z,50.90
2019-02-22T19:26:55.418Z,50.06
2019-02-22T19:29:25.910Z,49.83
2019-02-22T19:31:58.047Z,50.02
2019-02-22T19:34:28.605Z,49.70
2019-02-22T19:37:00.953Z,49.62
2019-02-22T19:39:37.974Z,49.91
2019-02-22T19:42:09.959Z,49.86
2019-02-22T19:44:40.533Z,50.20
2019-02-22T19:47:11.320Z,50.41
2019-02-22T19:49:41.881Z,50.16
2019-02-22T19:52:14.333Z,50.13
2019-02-22T19:54:48.430Z,50.27
2019-02-22T19:57:18.966Z,50.34
2019-02-22T19:59:52.284Z,51.17
2019-02-22T20:02:22.835Z,51.17
2019-02-22T20:04:53.490Z,51.11
2019-02-22T20:07:24.080Z,51.22
2019-02-22T20:09:54.573Z,51.38
2019-02-22T20:12:29.103Z,52.02
2019-02-22T20:15:01.133Z,52.48
2019-02-22T20:17:34.345Z,53.23
2019-02-22T20:20:07.368Z,53.75
2019-02-22T20:22:37.938Z,54.60
2019-02-22T20:25:09.842Z,55.12
2019-02-22T20:27:40.595Z,55.68
2019-02-22T20:30:15.813Z,55.78
2019-02-22T20:32:48.161Z,56.22
2019-02-22T20:35:24.481Z,56.43
2019-02-22T20:37:59.420Z,57.03
2019-02-22T20:40:34.006Z,57.48
2019-02-22T20:43:22.357Z,57.85
2019-02-22T20:45:55.955Z,57.88
2019-02-22T20:48:26.975Z,58.22
2019-02-22T20:50:59.160Z,58.71
2019-02-22T20:53:29.951Z,59.10
2019-02-22T20:56:02.692Z,59.60
2019-02-22T20:58:35.257Z,59.60
2019-02-22T21:01:14.779Z,60.07
2019-02-22T21:03:44.816Z,60.13
2019-02-22T21:06:19.036Z,60.39
2019-02-22T21:08:54.555Z,60.53
2019-02-22T21:11:25.832Z,60.53
2019-02-22T21:13:58.799Z,60.68
2019-02-22T21:16:30.682Z,61.31
2019-02-22T21:19:01.695Z,61.50
2019-02-22T21:21:33.073Z,61.86
2019-02-22T21:24:09.879Z,61.86
2019-02-22T21:26:41.151Z,61.97
2019-02-22T21:29:17.929Z,62.21
2019-02-22T21:31:49.921Z,62.95
2019-02-22T21:34:24.849Z,62.95
2019-02-22T21:36:57.425Z,63.75
2019-02-22T21:39:30.826Z,63.69
2019-02-22T21:42:01.660Z,64.03
2019-02-22T21:44:32.559Z,63.94
2019-02-22T21:47:03.511Z,63.37
2019-02-22T21:49:35.885Z,62.94
2019-02-22T21:52:06.800Z,63.08
2019-02-22T21:54:37.582Z,63.08
2019-02-22T21:57:09.256Z,63.00
2019-02-22T21:59:40.061Z,63.38
2019-02-22T22:02:12.394Z,63.50
2019-02-22T22:04:46.060Z,63.77
2019-02-22T22:07:17.789Z,64.22
2019-02-22T22:09:49.574Z,64.22
2019-02-22T22:12:22.780Z,64.11
2019-02-22T22:14:53.632Z,64.57
2019-02-22T22:17:24.357Z,64.67
2019-02-22T22:19:55.087Z,64.85
2019-02-22T22:22:25.855Z,64.85
2019-02-22T22:24:56.584Z,64.92
2019-02-22T22:27:27.369Z,65.30
2019-02-22T22:29:58.149Z,65.30
2019-02-22T22:32:29.936Z,65.49
2019-02-22T22:35:00.667Z,65.71
2019-02-22T22:37:32.688Z,65.99
2019-02-22T22:40:03.444Z,66.58
2019-02-22T22:42:35.226Z,66.52
2019-02-22T22:45:09.105Z,66.83
2019-02-22T22:47:40.242Z,66.76
2019-02-22T22:50:14.710Z,67.09
2019-02-22T22:52:45.489Z,67.44
2019-02-22T22:55:16.184Z,67.66
2019-02-22T22:57:47.850Z,68.01
2019-02-22T23:00:53.094Z,68.10
2019-02-22T23:03:23.870Z,68.50
2019-02-22T23:05:54.609Z,68.90
2019-02-22T23:08:25.314Z,69.05
2019-02-22T23:10:56.038Z,69.18
2019-02-22T23:13:28.372Z,69.20
2019-02-22T23:15:59.128Z,69.16
2019-02-22T23:18:29.875Z,69.47
2019-02-22T23:21:02.133Z,69.86
2019-02-22T23:23:32.933Z,70.15
2019-02-22T23:26:05.529Z,70.32
2019-02-22T23:28:36.388Z,70.60
2019-02-22T23:31:07.162Z,70.39
2019-02-22T23:33:39.442Z,70.96
2019-02-22T23:36:10.289Z,71.16
2019-02-22T23:38:41.055Z,71.04
2019-02-22T23:41:11.951Z,71.44
2019-02-22T23:43:42.725Z,71.44
2019-02-22T23:46:13.891Z,71.68
2019-02-22T23:48:44.784Z,71.97
2019-02-22T23:51:15.743Z,71.97
2019-02-22T23:53:46.557Z,72.17
2019-02-22T23:56:20.261Z,72.42
2019-02-22T23:58:51.084Z,72.51
